X  Chiuso Dati meteorologici dell'aviazione (METAR)     LIMC Malpensa International Airport
Temperatura
16°C Temperatura
14°C Punto di rugiada
88% Umidità



Vento
8 KM/O
5 MPH
2 M/S
4 KTS



20°
NNE
Condizioni attuali

Chiaro Chiaro
Pressione 1017.92 (hPa) - 30.06 (inHg)
Visibilità 6.2 (miglio) - 10 (km)
Aeroporto
Codice-Aeroporto LIMC

Posizione: Malpensa International Airport
Distanza: 50 (km)

Metar:
LIMC 160320Z 02004KT CAVOK 16/14 Q1018 NOSIG

Ore: 16-05-2022 05:20 CEST